Sunday, April 22, 2018, 5:59 PM EDT
Back to Local

KALB, Albany International Airport

Location: Latham, NY, United States Lat: 42.75
Local Time: 5:59 PM EDT (21:59 GMT) Lon: -73.8
Time Zone: US/Eastern Elev: 285 ft

Show me the last for .
Show Decoded

2018-04-22 16:51 METAR KALB 222051Z 35007KT 10SM CLR 18/M13 A3031 RMK AO2 SLP266 T01781133 56017
                 =
2018-04-22 15:51 METAR KALB 221951Z 36008G18KT 10SM CLR 18/M12 A3032 RMK AO2 SLP269 T01781117 =
2018-04-22 14:51 METAR KALB 221851Z 28008KT 10SM CLR 16/M09 A3034 RMK AO2 SLP276 T01611089 =
2018-04-22 13:51 METAR KALB 221751Z 34012G15KT 10SM CLR 16/M10 A3036 RMK AO2 SLP282 T01611100
                 10167 20050 58017 =
2018-04-22 12:51 METAR KALB 221651Z 36008G20KT 10SM CLR 16/M09 A3038 RMK AO2 SLP289 T01561094 =
2018-04-22 11:51 METAR KALB 221551Z VRB03KT 10SM CLR 14/M09 A3040 RMK AO2 SLP295 T01441094 =
2018-04-22 10:51 METAR KALB 221451Z 00000KT 10SM CLR 11/M08 A3041 RMK AO2 SLP300 T01111078 50001
                 =
2018-04-22 09:51 METAR KALB 221351Z VRB03KT 10SM CLR 10/M06 A3042 RMK AO2 SLP302 T01001056 =
2018-04-22 08:51 METAR KALB 221251Z 34004KT 10SM CLR 07/M05 A3042 RMK AO2 SLP303 T00721050 =
2018-04-22 07:51 METAR KALB 221151Z 00000KT 10SM CLR 05/M05 A3041 RMK AO2 SLP299 T00501050 10050
                 21017 51012 =
2018-04-22 06:51 METAR KALB 221051Z 00000KT 10SM CLR M01/M06 A3040 RMK AO2 SLP297 T10061061 =
2018-04-22 05:51 METAR KALB 220951Z 00000KT 10SM CLR M01/M07 A3038 RMK AO2 SLP290 T10061067 =
2018-04-22 04:51 METAR KALB 220851Z 00000KT 10SM CLR M01/M07 A3037 RMK AO2 SLP287 T10061072 53003
                 =
2018-04-22 03:51 METAR KALB 220751Z 00000KT 10SM CLR 01/M07 A3037 RMK AO2 SLP286 T00111072 =
2018-04-22 02:51 METAR KALB 220651Z 00000KT 10SM CLR 02/M07 A3037 RMK AO2 SLP285 T00171072 =
2018-04-22 01:51 METAR KALB 220551Z 32004KT 10SM CLR 05/M08 A3037 RMK AO2 SLP285 T00501078 10106
                 20039 50005 =
2018-04-22 00:51 METAR KALB 220451Z 31005KT 10SM CLR 06/M07 A3037 RMK AO2 SLP286 T00561072
                 401560011 =
2018-04-21 23:51 METAR KALB 220351Z 31008KT 10SM CLR 07/M08 A3036 RMK AO2 SLP282 T00721078 =
2018-04-21 22:51 METAR KALB 220251Z 29009KT 10SM CLR 07/M07 A3035 RMK AO2 SLP279 T00721072 51017
                 =
2018-04-21 21:51 METAR KALB 220151Z 29008KT 10SM CLR 08/M08 A3034 RMK AO2 SLP274 T00781078 =
2018-04-21 20:51 METAR KALB 220051Z 29011KT 10SM FEW250 09/M08 A3032 RMK AO2 SLP268 T00941078 =
2018-04-21 19:51 METAR KALB 212351Z 28010G18KT 10SM FEW080 FEW250 11/M08 A3030 RMK AO2 SLP262
                 T01061083 10156 20106 53015 =
2018-04-21 18:51 METAR KALB 212251Z 31012G18KT 10SM FEW250 13/M09 A3027 RMK AO2 SLP252 T01281089
                 =

Support USWX by starting your Amazon purchase here.